Time;durP1;ratioP1;P1;durP2;ratioP2;P2;SDS_P1;SDS_P2;PMS_P1;PMS_P2;Temp;Humidity;BMP_temperature;BMP_pressure;BME280_temperature;BME280_humidity;BME280_pressure;Samples;Min_cycle;Max_cycle;Signal;HPM_P1;HPM_P2
2023/09/01 00:01:20;;;;;;;6.27;5.70;;;13.30;99.90;;;12.78;84.32;100579.84;5096298;28;20196;-74
2023/09/01 00:03:52;;;;;;;8.30;6.40;;;13.20;99.90;;;12.76;84.81;100579.19;5095754;28;20601;-74
2023/09/01 00:06:24;;;;;;;7.63;6.20;;;13.20;99.90;;;12.62;85.49;100578.94;5096244;28;20262;-75
2023/09/01 00:08:56;;;;;;;9.67;6.70;;;13.10;99.90;;;12.60;84.84;100580.97;5096171;28;20281;-75
2023/09/01 00:11:32;;;;;;;7.97;6.37;;;13.20;99.90;;;12.62;84.84;100573.56;5096117;28;20279;-74
2023/09/01 00:14:05;;;;;;;6.80;6.20;;;13.00;99.90;;;12.65;85.10;100567.84;5095654;28;20654;-75
2023/09/01 00:16:38;;;;;;;7.90;6.60;;;13.20;99.90;;;12.51;85.39;100568.59;5096034;28;20242;-75
2023/09/01 00:19:10;;;;;;;7.23;6.53;;;13.00;99.90;;;12.54;85.27;100562.88;5095976;28;20193;-74
2023/09/01 00:21:42;;;;;;;8.37;5.97;;;13.10;99.90;;;12.58;86.14;100560.66;5095911;28;20279;-74
2023/09/01 00:24:14;;;;;;;9.43;6.77;;;13.10;99.90;;;12.59;85.69;100565.88;5095388;28;20769;-75
2023/09/01 00:26:46;;;;;;;7.17;6.43;;;13.10;99.90;;;12.61;85.15;100573.75;5094653;28;20265;-75
2023/09/01 00:29:17;;;;;;;9.33;6.63;;;13.10;99.90;;;12.62;85.23;100568.22;5095799;28;20276;-75
2023/09/01 00:31:52;;;;;;;8.93;6.63;;;13.00;99.90;;;12.68;84.76;100566.66;5095739;28;20560;-75
2023/09/01 00:34:24;;;;;;;7.77;6.97;;;13.20;99.90;;;12.59;84.57;100570.41;5095292;28;20758;-76
2023/09/01 00:36:56;;;;;;;7.13;6.43;;;13.20;99.90;;;12.53;84.87;100576.50;5095538;28;20199;-75
2023/09/01 00:39:28;;;;;;;7.63;6.87;;;13.10;99.90;;;12.52;85.29;100567.59;5095607;28;20197;-76
2023/09/01 00:42:02;;;;;;;7.33;6.17;;;13.00;99.90;;;12.50;85.91;100564.22;5095513;28;20193;-76
2023/09/01 00:44:34;;;;;;;8.20;7.13;;;13.10;99.90;;;12.46;85.11;100564.78;5094934;28;20235;-74
2023/09/01 00:47:07;;;;;;;7.63;6.90;;;13.00;99.90;;;12.56;85.06;100568.09;5095353;28;20272;-74
2023/09/01 00:49:40;;;;;;;7.73;6.20;;;13.00;99.90;;;12.59;84.47;100571.25;5095092;28;20284;-75
2023/09/01 00:52:13;;;;;;;8.73;6.23;;;13.10;99.90;;;12.63;84.40;100563.69;5094941;28;20635;-75
2023/09/01 00:54:44;;;;;;;6.53;5.93;;;13.20;99.90;;;12.68;83.67;100567.50;5094898;28;20232;-75
2023/09/01 00:57:16;;;;;;;6.50;5.60;;;13.20;99.90;;;12.71;83.85;100555.53;5095151;28;20299;-76
2023/09/01 00:59:50;;;;;;;6.23;5.67;;;13.20;99.90;;;12.74;83.30;100565.94;5095187;28;20224;-76
2023/09/01 01:02:23;;;;;;;6.83;6.20;;;13.30;99.90;;;12.71;83.23;100561.75;5095108;28;20193;-75
2023/09/01 01:04:56;;;;;;;7.60;5.90;;;13.20;99.90;;;12.71;83.95;100553.69;5094899;28;20324;-75
2023/09/01 01:07:40;;;;;;;8.83;6.57;;;13.20;99.90;;;12.69;82.50;100550.38;5094977;28;20287;-75
2023/09/01 01:10:27;;;;;;;7.63;6.40;;;13.10;99.90;;;12.73;83.71;100560.75;5094949;28;20189;-76
2023/09/01 01:13:07;;;;;;;7.23;6.30;;;13.20;99.90;;;12.73;83.21;100568.81;5094902;28;20189;-76
2023/09/01 01:15:42;;;;;;;6.70;5.87;;;13.20;99.90;;;12.73;83.01;100558.06;5094858;28;20196;-75
2023/09/01 01:18:18;;;;;;;6.30;5.70;;;13.20;99.90;;;12.73;82.99;100548.16;5094504;28;20712;-75
2023/09/01 01:21:04;;;;;;;6.77;6.17;;;13.20;99.90;;;12.69;83.37;100550.38;5094885;28;20191;-75
2023/09/01 01:23:39;;;;;;;6.10;5.50;;;13.10;99.90;;;12.69;82.82;100547.69;5094673;28;20229;-74
2023/09/01 01:26:16;;;;;;;7.20;5.87;;;13.10;99.90;;;12.71;83.06;100559.06;5094717;28;20280;-74
2023/09/01 01:28:48;;;;;;;6.97;6.13;;;13.20;99.90;;;12.70;83.30;100559.25;5094579;28;20288;-76
2023/09/01 01:31:20;;;;;;;6.23;5.63;;;13.20;99.90;;;12.64;82.97;100555.41;5094571;28;20191;-76
2023/09/01 01:34:04;;;;;;;7.23;6.10;;;13.20;99.90;;;12.65;82.30;100567.84;5094436;28;20235;-76
2023/09/01 01:36:46;;;;;;;8.87;6.70;;;13.20;99.90;;;12.64;83.00;100558.09;5093833;28;20704;-76
2023/09/01 01:39:25;;;;;;;6.47;5.97;;;13.10;99.90;;;12.67;82.75;100555.06;5094385;28;20188;-76
2023/09/01 01:42:06;;;;;;;8.50;6.07;;;13.10;99.90;;;12.62;82.28;100562.00;5094370;28;20188;-76
2023/09/01 01:44:44;;;;;;;6.20;5.70;;;13.10;99.90;;;12.58;82.87;100560.66;5093813;28;20327;-75
2023/09/01 01:47:19;;;;;;;6.37;5.80;;;13.10;99.90;;;12.62;82.49;100562.00;5094281;28;20189;-75
2023/09/01 01:49:51;;;;;;;7.07;6.37;;;13.00;99.90;;;12.58;83.15;100560.66;5094211;28;20276;-75
2023/09/01 01:52:23;;;;;;;8.77;7.13;;;13.00;99.90;;;12.54;82.60;100570.94;5093898;28;20271;-75
2023/09/01 01:54:56;;;;;;;7.17;6.47;;;13.10;99.90;;;12.51;82.91;100560.53;5093935;28;20260;-74
2023/09/01 01:57:28;;;;;;;7.97;7.17;;;12.90;99.90;;;12.31;84.68;100567.38;5094125;28;20284;-75
2023/09/01 02:00:00;;;;;;;7.10;6.40;;;12.80;99.90;;;12.28;85.46;100574.94;5093794;28;20631;-75
2023/09/01 02:02:32;;;;;;;8.80;7.90;;;12.70;99.90;;;12.16;85.26;100583.38;5094058;28;20193;-76
2023/09/01 02:05:06;;;;;;;8.83;7.63;;;12.70;99.90;;;12.03;86.81;100582.25;5093873;28;20239;-75
2023/09/01 02:07:38;;;;;;;8.00;7.20;;;12.60;99.90;;;11.95;87.23;100579.63;5093987;28;20188;-76
2023/09/01 02:10:12;;;;;;;8.93;8.03;;;12.50;99.90;;;11.99;87.43;100576.41;5093911;28;20622;-75
2023/09/01 02:12:44;;;;;;;9.57;7.30;;;12.50;99.90;;;12.02;86.77;100569.88;5093869;28;20245;-75
2023/09/01 02:15:16;;;;;;;9.00;8.10;;;12.60;99.90;;;11.96;87.31;100578.59;5093448;28;20267;-75
2023/09/01 02:17:48;;;;;;;11.23;7.87;;;12.60;99.90;;;12.06;87.41;100573.84;5093818;28;20216;-75
2023/09/01 02:20:20;;;;;;;8.63;7.80;;;12.60;99.90;;;12.04;86.74;100567.84;5093471;28;20203;-75
2023/09/01 02:22:54;;;;;;;7.80;7.00;;;12.60;99.90;;;12.07;86.32;100572.84;5093448;28;20192;-75
2023/09/01 02:25:28;;;;;;;8.90;7.70;;;12.60;99.90;;;12.08;86.35;100566.47;5093601;28;20322;-75
2023/09/01 02:28:00;;;;;;;8.40;7.57;;;12.70;99.90;;;12.13;86.31;100570.31;5093673;28;20215;-75
2023/09/01 02:30:32;;;;;;;7.63;6.93;;;12.80;99.90;;;12.20;85.59;100578.50;5093712;28;20280;-75
2023/09/01 02:33:04;;;;;;;8.30;7.50;;;12.80;99.90;;;12.18;86.48;100570.63;5093625;28;20195;-75
2023/09/01 02:35:41;;;;;;;11.20;7.50;;;12.80;99.90;;;12.19;86.13;100576.84;5093645;28;20189;-75
2023/09/01 02:38:13;;;;;;;9.37;7.10;;;12.70;99.90;;;12.17;86.82;100578.84;5093572;28;20188;-75
2023/09/01 02:40:46;;;;;;;9.57;7.33;;;12.60;99.90;;;12.13;86.38;100572.16;5093326;28;20587;-75
2023/09/01 02:43:18;;;;;;;8.10;7.37;;;12.80;99.90;;;12.10;86.39;100583.22;5093453;28;20279;-75
2023/09/01 02:45:50;;;;;;;8.87;7.17;;;12.60;99.90;;;12.13;86.24;100574.84;5093477;28;20219;-75
2023/09/01 02:48:22;;;;;;;8.83;7.33;;;12.60;99.90;;;12.17;85.84;100585.06;5093490;28;20279;-75
2023/09/01 02:50:54;;;;;;;9.53;7.30;;;12.60;99.90;;;12.20;86.26;100586.53;5097421;28;20726;-75
2023/09/01 02:53:28;;;;;;;8.10;7.30;;;12.70;99.90;;;12.24;86.49;100585.19;5097449;28;20307;-75
2023/09/01 02:56:02;;;;;;;9.77;7.00;;;12.80;99.90;;;12.27;85.46;100582.16;5098003;28;20288;-75
2023/09/01 02:58:35;;;;;;;8.57;7.30;;;12.70;99.90;;;12.16;86.44;100583.38;5097489;28;20188;-75
2023/09/01 03:01:12;;;;;;;7.87;7.10;;;12.80;99.90;;;12.21;86.57;100585.53;5097147;28;20669;-75
2023/09/01 03:03:44;;;;;;;7.60;6.50;;;12.70;99.90;;;12.23;86.06;100591.56;5097048;28;20736;-75
2023/09/01 03:06:16;;;;;;;8.10;6.63;;;12.70;99.90;;;12.23;85.76;100588.88;5096950;28;20694;-75
2023/09/01 03:08:48;;;;;;;9.87;7.17;;;12.80;99.90;;;12.24;85.37;100584.34;5097310;28;20621;-75
2023/09/01 03:11:21;;;;;;;8.47;6.47;;;12.80;99.90;;;12.26;84.77;100585.03;5097259;28;20184;-75
2023/09/01 03:13:53;;;;;;;8.77;7.00;;;12.90;99.90;;;12.27;84.73;100587.53;5097191;28;20259;-75
2023/09/01 03:16:25;;;;;;;8.60;7.13;;;12.80;99.90;;;12.26;84.96;100583.16;5097201;28;20235;-75
2023/09/01 03:18:59;;;;;;;8.13;6.70;;;12.90;99.90;;;12.27;84.76;100592.88;5097503;28;20223;-75
2023/09/01 03:21:31;;;;;;;7.30;6.50;;;12.70;99.90;;;12.28;84.93;100581.16;5097099;28;20220;-75
2023/09/01 03:24:03;;;;;;;7.40;6.57;;;12.80;99.90;;;12.23;83.89;100583.50;5096693;28;20706;-75
2023/09/01 03:26:36;;;;;;;8.30;7.00;;;12.70;99.90;;;12.23;84.03;100582.66;5096892;28;20215;-75
2023/09/01 03:29:08;;;;;;;7.33;6.13;;;12.80;99.90;;;12.26;83.73;100583.16;5096570;28;20719;-76
2023/09/01 03:31:40;;;;;;;7.00;6.40;;;12.80;99.90;;;12.28;83.69;100591.88;5096893;28;20211;-76
2023/09/01 03:34:12;;;;;;;7.77;7.00;;;12.80;99.90;;;12.23;84.28;100588.88;5096719;28;20285;-75
2023/09/01 03:36:44;;;;;;;6.63;5.97;;;12.70;99.90;;;12.20;84.30;100583.84;5096751;28;20287;-75
2023/09/01 03:39:18;;;;;;;8.37;6.37;;;12.70;99.90;;;12.19;84.14;100592.94;5096466;28;20220;-75
2023/09/01 03:41:51;;;;;;;6.33;5.73;;;12.70;99.90;;;12.15;83.55;100594.28;5096399;28;20250;-75
2023/09/01 03:44:23;;;;;;;8.40;6.83;;;12.80;99.90;;;12.13;84.89;100601.66;5096589;28;20299;-75
2023/09/01 03:46:55;;;;;;;7.83;6.23;;;12.60;99.90;;;12.11;84.08;100606.38;5096560;28;20300;-75
2023/09/01 03:49:27;;;;;;;7.10;5.90;;;12.70;99.90;;;12.10;84.67;100602.03;5096469;28;20299;-75
2023/09/01 03:51:59;;;;;;;7.50;6.50;;;12.70;99.90;;;12.05;84.20;100601.72;5096520;28;20251;-75
2023/09/01 03:54:31;;;;;;;6.90;6.30;;;12.60;99.90;;;12.05;83.78;100602.56;5096162;28;20264;-75
2023/09/01 03:57:04;;;;;;;7.37;6.17;;;12.60;99.90;;;12.02;83.74;100599.38;5096145;28;20184;-75
2023/09/01 03:59:36;;;;;;;6.87;6.23;;;12.50;99.90;;;11.96;84.78;100592.84;5095846;28;20224;-75
2023/09/01 04:02:09;;;;;;;7.87;6.23;;;12.40;99.90;;;11.96;84.77;100594.69;5096272;28;20246;-75
2023/09/01 04:04:41;;;;;;;8.43;6.77;;;12.40;99.90;;;11.92;84.34;100590.66;5096197;28;20267;-75
2023/09/01 04:07:13;;;;;;;7.23;6.47;;;12.50;99.90;;;11.92;84.38;100596.03;5096086;28;20300;-75
2023/09/01 04:09:44;;;;;;;8.43;6.57;;;12.40;99.90;;;11.93;84.74;100600.41;5095835;28;20670;-75
2023/09/01 04:12:18;;;;;;;7.50;6.70;;;12.50;99.90;;;11.94;84.05;100600.25;5096112;28;20213;-75
2023/09/01 04:14:50;;;;;;;8.13;6.10;;;12.60;99.90;;;11.92;83.98;100607.59;5096134;28;20228;-75
2023/09/01 04:17:22;;;;;;;7.07;6.03;;;12.40;99.90;;;11.92;83.79;100601.41;5096037;28;20191;-75
2023/09/01 04:19:54;;;;;;;9.20;6.43;;;12.40;99.90;;;11.92;84.75;100601.41;5095937;28;20223;-73
2023/09/01 04:22:27;;;;;;;7.50;6.80;;;12.40;99.90;;;11.83;86.58;100605.13;5096017;28;20212;-75
2023/09/01 04:24:58;;;;;;;8.30;7.50;;;12.30;99.90;;;11.84;86.31;100609.50;5095782;28;20248;-74
2023/09/01 04:27:32;;;;;;;8.23;7.43;;;12.40;99.90;;;11.79;87.33;100609.16;5095704;28;20231;-74
2023/09/01 04:30:04;;;;;;;8.27;7.47;;;12.30;99.90;;;11.79;86.82;100603.78;5094832;28;20663;-74
2023/09/01 04:32:43;;;;;;;7.77;6.97;;;12.20;99.90;;;11.79;86.68;100599.25;5094567;28;20196;-74
2023/09/01 04:35:15;;;;;;;8.80;7.07;;;12.40;99.90;;;11.79;86.07;100606.47;5095294;28;20627;-75
2023/09/01 04:37:47;;;;;;;7.97;7.27;;;12.30;99.90;;;11.83;86.51;100610.50;5095842;28;20223;-75
2023/09/01 04:40:19;;;;;;;8.13;7.37;;;12.40;99.90;;;11.81;86.11;100609.84;5095689;28;20221;-76
2023/09/01 04:42:52;;;;;;;9.43;7.30;;;12.30;99.90;;;11.76;85.76;100606.81;5095248;28;20193;-76
2023/09/01 04:45:27;;;;;;;7.50;6.80;;;12.30;99.90;;;11.79;85.66;100609.16;5095112;28;20709;-76
2023/09/01 04:47:58;;;;;;;8.97;6.60;;;12.20;99.90;;;11.80;85.57;100608.16;5104996;28;20240;-74
2023/09/01 04:50:30;;;;;;;8.67;6.90;;;12.40;99.90;;;11.81;85.13;100607.16;5104532;28;20196;-74
2023/09/01 04:53:03;;;;;;;7.60;6.83;;;12.30;99.90;;;11.84;86.21;100620.22;5095173;28;20189;-76
2023/09/01 04:55:35;;;;;;;9.30;7.40;;;12.30;99.90;;;11.85;85.08;100617.34;5094933;28;20633;-76
2023/09/01 04:58:11;;;;;;;8.27;7.03;;;12.40;99.90;;;11.84;86.03;100622.91;5095256;28;20268;-76
2023/09/01 05:00:44;;;;;;;9.07;6.77;;;12.30;99.90;;;11.85;86.17;100617.34;5097406;28;20199;-75
2023/09/01 05:03:16;;;;;;;7.83;7.00;;;12.40;99.90;;;11.83;86.26;100629.25;5095164;28;20714;-75
2023/09/01 05:05:50;;;;;;;7.57;6.63;;;12.40;99.90;;;11.85;86.29;100621.91;5094988;28;20192;-75
2023/09/01 05:08:22;;;;;;;7.73;7.00;;;12.40;99.90;;;11.80;86.05;100619.72;5095553;28;20189;-75
2023/09/01 05:10:55;;;;;;;12.30;7.30;;;12.30;99.90;;;11.75;86.83;100627.44;5094864;28;20272;-75
2023/09/01 05:13:33;;;;;;;8.50;7.67;;;12.30;99.90;;;11.77;86.80;100625.44;5094460;28;20226;-74
2023/09/01 05:16:07;;;;;;;9.13;7.93;;;12.30;99.90;;;11.74;86.74;100632.97;5095699;28;20189;-74
2023/09/01 05:18:39;;;;;;;9.57;8.10;;;12.30;99.90;;;11.74;86.94;100633.81;5094475;28;20189;-74
2023/09/01 05:21:13;;;;;;;12.40;7.60;;;12.30;99.90;;;11.79;87.29;100634.13;5094661;28;20215;-74
2023/09/01 05:23:45;;;;;;;11.47;8.13;;;12.30;99.90;;;11.82;87.34;100635.63;5094628;28;20311;-75
2023/09/01 05:26:18;;;;;;;8.90;8.00;;;12.40;99.90;;;11.82;87.19;100638.31;5094558;28;20251;-75
2023/09/01 05:28:51;;;;;;;9.60;7.30;;;12.30;99.90;;;11.85;87.42;100638.00;5094316;28;20287;-75
2023/09/01 05:31:23;;;;;;;9.33;7.23;;;12.40;99.90;;;11.86;87.27;100639.66;5094907;28;20276;-75
2023/09/01 05:33:55;;;;;;;8.97;8.07;;;12.40;99.90;;;11.86;87.18;100636.97;5094471;28;20315;-74
2023/09/01 05:36:28;;;;;;;8.80;8.00;;;12.40;99.90;;;11.86;87.73;100628.91;5095282;28;20181;-76
2023/09/01 05:38:59;;;;;;;12.03;8.20;;;12.40;99.90;;;11.84;88.27;100636.31;5094118;28;20652;-74
2023/09/01 05:41:31;;;;;;;8.40;7.37;;;12.40;99.90;;;11.88;87.36;100643.03;5094902;28;20228;-74
2023/09/01 05:44:05;;;;;;;12.33;8.23;;;12.60;99.90;;;11.90;88.09;100635.63;5094005;28;20705;-75
2023/09/01 05:46:36;;;;;;;9.07;7.93;;;12.50;99.90;;;11.93;88.37;100635.28;5094231;28;20296;-75
2023/09/01 05:49:08;;;;;;;9.10;7.97;;;12.50;99.90;;;11.94;88.98;100634.28;5094262;28;20189;-74
2023/09/01 05:51:40;;;;;;;10.27;7.80;;;12.50;99.90;;;11.96;89.04;100640.28;5094219;28;20283;-74
2023/09/01 05:54:12;;;;;;;8.73;7.50;;;12.50;99.90;;;11.99;88.11;100639.94;5093789;28;20323;-74
2023/09/01 05:56:44;;;;;;;10.67;8.13;;;12.60;99.90;;;12.01;88.50;100648.69;5094081;28;20195;-74
2023/09/01 05:59:17;;;;;;;11.17;7.23;;;12.60;99.90;;;12.02;88.90;100645.00;5094115;28;20268;-76
2023/09/01 06:01:49;;;;;;;9.43;8.43;;;12.60;99.90;;;12.01;89.58;100643.31;5094045;28;20197;-76
2023/09/01 06:04:21;;;;;;;11.77;7.97;;;12.60;99.90;;;12.04;89.93;100648.34;5093660;28;20228;-74
2023/09/01 06:06:53;;;;;;;10.03;8.33;;;12.60;99.90;;;12.04;90.44;100649.19;5093896;28;20244;-74
2023/09/01 06:09:25;;;;;;;9.30;7.87;;;12.60;99.90;;;12.03;90.48;100652.00;5094007;28;20275;-74
2023/09/01 06:11:57;;;;;;;9.70;7.23;;;12.70;99.90;;;12.06;90.83;100651.66;5093961;28;20268;-74
2023/09/01 06:14:31;;;;;;;11.67;7.40;;;12.70;99.90;;;12.08;91.03;100660.41;5093551;28;20711;-74
2023/09/01 06:17:03;;;;;;;8.67;7.23;;;12.70;99.90;;;12.10;90.99;100663.75;5093843;28;20272;-76
2023/09/01 06:19:35;;;;;;;9.23;7.90;;;12.70;99.90;;;12.13;91.23;100658.88;5093751;28;20220;-76
2023/09/01 06:22:07;;;;;;;12.23;8.03;;;12.80;99.90;;;12.17;91.59;100652.16;5094096;28;20217;-76
2023/09/01 06:24:57;;;;;;;8.30;7.30;;;12.80;99.90;;;12.22;90.98;100650.81;5092872;28;20220;-75
2023/09/01 06:27:30;;;;;;;7.60;6.83;;;12.90;99.90;;;12.24;90.41;100644.25;5093608;28;20299;-76
2023/09/01 06:30:04;;;;;;;10.60;6.83;;;13.00;99.90;;;12.31;91.43;100655.97;5093627;28;20197;-75
2023/09/01 06:32:36;;;;;;;9.00;7.20;;;13.00;99.90;;;12.36;91.54;100661.66;5093570;28;20239;-75
2023/09/01 06:35:09;;;;;;;7.83;6.10;;;13.00;99.90;;;12.39;91.82;100663.16;5093321;28;20224;-75
2023/09/01 06:37:41;;;;;;;10.37;7.47;;;13.10;99.90;;;12.45;92.24;100665.97;5093606;28;20279;-75
2023/09/01 06:40:15;;;;;;;7.50;6.50;;;13.30;99.90;;;12.48;91.66;100676.38;5093551;28;20271;-74
2023/09/01 06:42:47;;;;;;;7.53;6.30;;;13.20;99.90;;;12.51;92.00;100667.13;5093508;28;20181;-75
2023/09/01 06:45:20;;;;;;;6.90;6.20;;;13.20;99.90;;;12.54;91.99;100669.44;5093459;28;20234;-65
2023/09/01 06:47:55;;;;;;;9.67;7.63;;;13.20;99.90;;;12.59;91.82;100665.25;5093373;28;20213;-72
2023/09/01 06:50:28;;;;;;;8.77;7.30;;;13.30;99.90;;;12.66;92.20;100673.44;5093488;28;20242;-72
2023/09/01 06:53:00;;;;;;;9.30;7.23;;;13.30;99.90;;;12.69;91.93;100665.88;5093447;28;20288;-72
2023/09/01 06:55:32;;;;;;;10.33;7.00;;;13.60;99.90;;;12.73;91.89;100669.03;5093040;28;20273;-72
2023/09/01 06:58:05;;;;;;;10.27;6.37;;;13.40;99.90;;;12.77;91.35;100672.22;5093095;28;20200;-72
2023/09/01 07:00:38;;;;;;;9.97;6.57;;;13.50;99.90;;;12.82;91.47;100675.19;5093378;28;20189;-72
2023/09/01 07:03:11;;;;;;;8.27;7.00;;;13.60;99.90;;;12.89;89.94;100670.78;5093251;28;20665;-72
2023/09/01 07:05:42;;;;;;;13.40;7.27;;;13.60;99.90;;;12.94;90.34;100673.78;5093297;28;20203;-72
2023/09/01 07:08:16;;;;;;;8.97;6.67;;;13.60;99.90;;;13.00;90.11;100673.09;5092892;28;20782;-72
2023/09/01 07:10:48;;;;;;;8.80;6.07;;;13.70;99.90;;;13.04;90.38;100674.41;5093271;28;20287;-72
2023/09/01 07:13:20;;;;;;;8.90;7.00;;;13.70;99.90;;;13.11;90.44;100683.47;5093192;28;20232;-72
2023/09/01 07:15:53;;;;;;;11.13;7.30;;;13.80;99.90;;;13.15;89.36;100674.84;5092890;28;20319;-72
2023/09/01 07:18:25;;;;;;;10.93;7.47;;;13.90;99.90;;;13.19;90.51;100678.00;5093176;28;20192;-72
2023/09/01 07:21:02;;;;;;;7.90;6.13;;;13.90;99.90;;;13.24;89.32;100672.09;5093214;28;20242;-72
2023/09/01 07:23:34;;;;;;;7.73;6.60;;;14.00;99.90;;;13.26;89.95;100684.34;5093021;28;20229;-72
2023/09/01 07:26:06;;;;;;;9.77;6.97;;;14.00;99.90;;;13.34;89.97;100681.63;5093107;28;20196;-72
2023/09/01 07:28:38;;;;;;;10.77;6.70;;;14.00;99.90;;;13.40;89.87;100674.66;5092718;28;20215;-72
2023/09/01 07:31:16;;;;;;;10.73;6.97;;;14.20;99.90;;;13.48;88.79;100678.16;5093074;28;20197;-72
2023/09/01 07:33:51;;;;;;;12.00;6.83;;;14.30;99.90;;;13.51;88.78;100667.03;5092659;28;20224;-72
2023/09/01 07:36:22;;;;;;;11.03;7.13;;;14.30;99.90;;;13.62;88.15;100671.97;5095810;28;20202;-72
2023/09/01 07:38:54;;;;;;;8.30;7.07;;;14.30;99.90;;;13.73;87.64;100687.66;5096779;28;20284;-72
2023/09/01 07:41:26;;;;;;;9.13;7.10;;;14.40;99.90;;;13.82;87.10;100674.97;5096418;28;20634;-72
2023/09/01 07:43:58;;;;;;;11.97;7.53;;;14.50;99.90;;;13.91;87.58;100681.09;5096286;28;20231;-72
2023/09/01 07:46:33;;;;;;;14.43;7.40;;;14.60;99.90;;;14.05;86.36;100683.00;5096676;28;20231;-72
2023/09/01 07:49:05;;;;;;;14.20;7.77;;;14.70;99.90;;;14.13;85.10;100689.13;5096574;28;20219;-72
2023/09/01 07:51:38;;;;;;;13.50;8.20;;;14.80;99.90;;;14.18;85.91;100693.94;5096864;28;20193;-72
2023/09/01 07:54:09;;;;;;;11.17;7.47;;;14.90;99.90;;;14.30;85.20;100688.94;5096555;28;20241;-73
2023/09/01 07:56:41;;;;;;;11.33;7.93;;;15.00;99.90;;;14.35;85.17;100700.84;5096157;28;20608;-72
2023/09/01 07:59:13;;;;;;;8.47;7.50;;;15.10;99.90;;;14.40;85.32;100701.16;5096065;28;20743;-72
2023/09/01 08:01:47;;;;;;;10.20;7.23;;;15.10;99.90;;;14.34;86.03;100692.97;5096293;28;20300;-72
2023/09/01 08:04:19;;;;;;;9.03;6.93;;;15.10;99.90;;;14.36;85.63;100689.06;5096157;28;20355;-72
2023/09/01 08:06:52;;;;;;;9.13;6.97;;;15.10;99.90;;;14.49;85.68;100694.63;5095858;28;20646;-72
2023/09/01 08:09:25;;;;;;;7.73;5.60;;;15.30;99.90;;;14.59;85.58;100692.50;5096124;28;20299;-73
2023/09/01 08:11:57;;;;;;;8.37;7.00;;;15.00;99.90;;;14.64;85.03;100695.47;5095894;28;20639;-73
2023/09/01 08:14:29;;;;;;;9.93;6.83;;;15.40;99.90;;;14.74;83.12;100692.47;5096109;28;20658;-73
2023/09/01 08:17:02;;;;;;;10.67;6.70;;;15.40;99.90;;;14.83;83.39;100698.63;5096128;28;20187;-73
2023/09/01 08:19:36;;;;;;;12.20;6.63;;;15.60;99.90;;;14.89;83.15;100703.25;5095631;28;20279;-73
2023/09/01 08:22:08;;;;;;;10.77;8.57;;;15.70;99.90;;;14.92;82.91;100695.63;5095675;28;20640;-73
2023/09/01 08:24:40;;;;;;;12.00;6.87;;;15.60;99.90;;;15.13;82.04;100692.13;5095845;28;20312;-73
2023/09/01 08:27:12;;;;;;;10.63;6.33;;;15.80;99.90;;;15.19;82.58;100692.19;5095805;28;20193;-73
2023/09/01 08:29:45;;;;;;;11.30;7.20;;;16.00;99.90;;;15.27;81.73;100696.63;5095741;28;20303;-72
2023/09/01 08:32:18;;;;;;;11.50;6.57;;;16.00;99.90;;;15.24;82.99;100694.28;5095695;28;20284;-73
2023/09/01 08:34:49;;;;;;;10.07;5.87;;;16.10;99.90;;;15.43;81.64;100692.84;5096431;28;20690;-73
2023/09/01 08:37:21;;;;;;;8.47;5.57;;;16.20;99.90;;;15.39;82.81;100691.53;5095642;28;20221;-73
2023/09/01 08:39:53;;;;;;;8.60;5.60;;;16.20;99.90;;;15.38;82.72;100685.31;5095359;28;20691;-73
2023/09/01 08:42:28;;;;;;;9.40;5.33;;;16.10;99.90;;;15.46;82.24;100687.88;5095549;28;20193;-73
2023/09/01 08:45:04;;;;;;;9.37;5.50;;;16.20;99.90;;;15.65;80.44;100684.56;5095394;28;20227;-73
2023/09/01 08:47:46;;;;;;;10.93;5.23;;;16.40;99.90;;;15.65;79.63;100687.25;5094396;28;20275;-73
2023/09/01 08:50:20;;;;;;;6.50;4.73;;;16.40;99.90;;;15.68;80.70;100678.75;5095383;28;20284;-73
2023/09/01 08:52:52;;;;;;;8.33;4.90;;;16.40;99.90;;;15.73;81.98;100683.59;5095339;28;20196;-73
2023/09/01 08:55:24;;;;;;;8.43;5.33;;;16.50;99.90;;;15.90;78.27;100684.13;5094820;28;20237;-73
2023/09/01 08:57:56;;;;;;;7.83;5.47;;;16.70;99.90;;;15.98;78.41;100682.13;5095294;28;20272;-73
2023/09/01 09:00:28;;;;;;;10.13;5.00;;;16.70;99.90;;;16.18;77.31;100677.72;5094890;28;20201;-73
2023/09/01 09:03:02;;;;;;;9.77;5.30;;;16.90;99.90;;;16.37;73.93;100681.53;5094862;28;20697;-73
2023/09/01 09:05:39;;;;;;;7.50;5.00;;;17.00;99.90;;;16.32;76.08;100678.63;5095099;28;20287;-73
2023/09/01 09:08:12;;;;;;;7.80;4.80;;;17.00;99.90;;;16.45;74.84;100675.16;5095037;28;20274;-73
2023/09/01 09:10:46;;;;;;;10.57;5.10;;;17.10;99.90;;;16.48;76.27;100675.59;5095022;28;20212;-73
2023/09/01 09:13:30;;;;;;;9.80;5.10;;;17.20;99.90;;;16.53;75.78;100675.00;5094948;28;20203;-73
2023/09/01 09:16:14;;;;;;;9.60;5.20;;;17.20;99.90;;;16.66;73.67;100681.31;5094808;28;20231;-73
2023/09/01 09:18:48;;;;;;;11.37;4.87;;;17.30;99.90;;;16.65;74.72;100673.41;5093359;28;20275;-73
2023/09/01 09:21:32;;;;;;;8.90;4.70;;;17.30;99.90;;;16.70;73.47;100681.75;5094455;28;20189;-73
2023/09/01 09:24:05;;;;;;;8.20;4.90;;;17.40;99.90;;;16.71;74.75;100680.72;5094689;28;20255;-73
2023/09/01 09:27:00;;;;;;;9.00;4.27;;;17.40;99.90;;;16.82;72.70;100680.13;5094675;28;20195;-73
2023/09/01 09:29:43;;;;;;;9.90;4.53;;;17.50;99.90;;;16.93;71.63;100681.41;5094434;28;20213;-73
2023/09/01 09:32:30;;;;;;;11.90;4.80;;;17.60;99.90;;;17.04;70.60;100684.38;5093777;28;20185;-73
2023/09/01 09:35:12;;;;;;;8.87;4.60;;;17.70;99.90;;;17.18;69.73;100674.44;5094492;28;20232;-73
2023/09/01 09:37:57;;;;;;;6.83;4.63;;;17.80;99.90;;;17.28;71.05;100672.16;5094479;28;20189;-73
2023/09/01 09:40:31;;;;;;;8.23;4.63;;;18.00;99.90;;;17.34;69.20;100668.63;5094102;28;20733;-73
2023/09/01 09:43:03;;;;;;;10.73;4.80;;;18.00;99.90;;;17.35;71.55;100675.72;5093618;28;20191;-72
2023/09/01 09:45:38;;;;;;;12.10;4.83;;;18.00;99.90;;;17.59;68.26;100677.00;5093392;28;20195;-72
2023/09/01 09:48:12;;;;;;;8.97;4.80;;;18.20;99.90;;;17.60;68.56;100679.50;5094225;28;20558;-72
2023/09/01 09:50:51;;;;;;;9.43;5.03;;;18.30;99.90;;;17.70;66.44;100673.69;5094162;28;20198;-72
2023/09/01 09:53:28;;;;;;;8.97;4.50;;;18.30;99.90;;;17.80;68.02;100671.41;5094106;28;20189;-72
2023/09/01 09:56:14;;;;;;;8.03;4.53;;;18.40;99.90;;;17.85;68.17;100670.75;5094122;28;20212;-72
2023/09/01 09:58:54;;;;;;;9.43;4.87;;;18.50;99.90;;;18.01;64.22;100687.44;5093899;28;20287;-72
2023/09/01 10:01:30;;;;;;;9.33;4.97;;;18.60;99.30;;;18.11;65.01;100678.88;5094065;28;20212;-72
2023/09/01 10:04:05;;;;;;;9.83;5.33;;;18.70;99.10;;;18.15;66.27;100680.94;5093920;28;20221;-72
2023/09/01 10:06:40;;;;;;;12.97;5.93;;;18.80;99.70;;;18.24;65.67;100681.56;5093959;28;20197;-72
2023/09/01 10:09:16;;;;;;;9.07;4.80;;;19.00;99.60;;;18.26;63.96;100687.59;5093844;28;20284;-72
2023/09/01 10:11:48;;;;;;;10.47;5.07;;;19.00;98.80;;;18.36;66.72;100696.13;5093839;28;20258;-71
2023/09/01 10:14:23;;;;;;;8.50;4.80;;;18.90;99.90;;;18.37;68.07;100691.53;5093665;28;20227;-72
2023/09/01 10:16:55;;;;;;;10.27;5.13;;;19.00;99.90;;;18.41;68.77;100690.91;5093486;28;20287;-72
2023/09/01 10:19:28;;;;;;;7.60;4.50;;;19.00;99.90;;;18.42;69.63;100695.28;5093717;28;20280;-72
2023/09/01 10:22:02;;;;;;;9.87;4.90;;;19.00;99.90;;;18.56;64.15;100699.63;5093696;28;20193;-72
2023/09/01 10:24:34;;;;;;;8.97;4.80;;;19.10;99.00;;;18.63;63.45;100692.31;5093605;28;20232;-72
2023/09/01 10:27:13;;;;;;;8.73;4.70;;;19.10;98.20;;;18.72;64.00;100693.75;5093321;28;20635;-72
2023/09/01 10:29:45;;;;;;;9.63;4.73;;;19.30;98.60;;;18.72;63.41;100706.47;5093224;28;20219;-73
2023/09/01 10:32:22;;;;;;;8.87;4.50;;;19.30;98.10;;;18.76;62.97;100698.75;5093491;28;20216;-74
2023/09/01 10:34:57;;;;;;;8.50;4.30;;;19.30;98.00;;;18.78;63.17;100705.63;5093510;28;20228;-74
2023/09/01 10:37:32;;;;;;;7.13;4.67;;;19.90;98.70;;;18.77;61.89;100703.13;5093591;28;20197;-74